Time;durP1;ratioP1;P1;durP2;ratioP2;P2;SDS_P1;SDS_P2;PMS_P1;PMS_P2;Temp;Humidity;BMP_temperature;BMP_pressure;BME280_temperature;BME280_humidity;BME280_pressure;Samples;Min_cycle;Max_cycle;Signal;HPM_P1;HPM_P2
2022/03/15 00:01:21;;;;;;;31.05;17.65;;;5.70;99.90;;;;;;12471212;28;20160;-41
2022/03/15 00:07:23;;;;;;;26.08;14.45;;;5.70;99.90;;;;;;12474347;28;20065;-40
2022/03/15 00:13:28;;;;;;;24.38;14.77;;;5.70;99.90;;;;;;12471517;28;20110;-39
2022/03/15 00:19:30;;;;;;;29.52;15.55;;;5.80;99.90;;;;;;12474976;28;20052;-37
2022/03/15 00:25:36;;;;;;;31.25;18.15;;;5.80;99.90;;;;;;12470819;28;20397;-37
2022/03/15 00:31:39;;;;;;;27.17;16.38;;;5.70;99.90;;;;;;12474842;28;20136;-39
2022/03/15 00:37:42;;;;;;;27.90;16.77;;;5.60;99.90;;;;;;12472552;28;20148;-38
2022/03/15 00:43:44;;;;;;;31.08;17.25;;;5.50;99.90;;;;;;12477618;28;20156;-36
2022/03/15 00:49:46;;;;;;;22.65;15.52;;;5.40;99.90;;;;;;12480969;28;20622;-39
2022/03/15 00:55:48;;;;;;;32.85;16.15;;;5.30;99.90;;;;;;12482865;28;20084;-39
2022/03/15 01:01:50;;;;;;;30.33;17.40;;;5.20;99.90;;;;;;12484499;28;20040;-39
2022/03/15 01:07:52;;;;;;;29.60;17.50;;;5.20;99.90;;;;;;12482214;28;20095;-37
2022/03/15 01:13:54;;;;;;;26.05;16.40;;;5.30;99.90;;;;;;12482034;28;20147;-39
2022/03/15 01:19:56;;;;;;;29.50;16.80;;;5.10;99.90;;;;;;12479026;28;20081;-37
2022/03/15 01:25:58;;;;;;;26.48;15.82;;;5.10;99.90;;;;;;12482178;28;20044;-39
2022/03/15 01:32:00;;;;;;;26.23;16.15;;;5.10;99.90;;;;;;12482086;28;20091;-37
2022/03/15 01:38:02;;;;;;;28.33;15.05;;;5.00;99.90;;;;;;12480111;28;20091;-37
2022/03/15 01:44:17;;;;;;;26.23;16.10;;;5.00;99.90;;;;;;12475168;28;20176;-39
2022/03/15 01:50:20;;;;;;;27.38;15.45;;;5.00;99.90;;;;;;12482138;28;20076;-36
2022/03/15 01:56:24;;;;;;;29.80;16.83;;;5.10;99.90;;;;;;12481407;28;20124;-39
2022/03/15 02:02:25;;;;;;;28.65;17.10;;;5.10;99.90;;;;;;12479624;28;20069;-36
2022/03/15 02:08:28;;;;;;;32.80;17.40;;;5.20;99.90;;;;;;12475524;28;20156;-38
2022/03/15 02:14:30;;;;;;;27.58;16.02;;;5.20;99.90;;;;;;12479193;28;20143;-39
2022/03/15 02:20:32;;;;;;;26.85;13.75;;;5.10;99.90;;;;;;12474732;28;20107;-39
2022/03/15 02:26:34;;;;;;;24.00;13.02;;;5.10;99.90;;;;;;12479421;28;20056;-38
2022/03/15 02:32:38;;;;;;;22.27;12.93;;;5.10;99.90;;;;;;12475753;28;20049;-40
2022/03/15 02:38:40;;;;;;;24.63;11.80;;;5.00;99.90;;;;;;12479031;28;20492;-39
2022/03/15 02:44:42;;;;;;;22.98;12.82;;;4.90;99.90;;;;;;12473451;28;20077;-39
2022/03/15 02:50:44;;;;;;;26.65;13.27;;;4.90;99.90;;;;;;12475955;28;20384;-39
2022/03/15 02:56:47;;;;;;;23.48;13.15;;;4.90;99.90;;;;;;12474103;28;20069;-39
2022/03/15 03:02:48;;;;;;;20.00;12.07;;;5.00;99.90;;;;;;12473519;28;20046;-38
2022/03/15 03:08:51;;;;;;;19.20;11.90;;;4.90;99.90;;;;;;12474689;28;20505;-39
2022/03/15 03:14:53;;;;;;;23.10;13.25;;;4.80;99.90;;;;;;12476343;28;20136;-37
2022/03/15 03:20:56;;;;;;;21.35;12.95;;;4.80;99.90;;;;;;12475935;28;20141;-36
2022/03/15 03:27:00;;;;;;;24.30;12.27;;;4.80;99.90;;;;;;12476118;28;20064;-37
2022/03/15 03:33:02;;;;;;;22.77;12.88;;;4.90;99.90;;;;;;12475775;28;20296;-37
2022/03/15 03:39:06;;;;;;;21.70;11.82;;;4.80;99.90;;;;;;12472231;28;20535;-39
2022/03/15 03:45:08;;;;;;;21.48;12.77;;;4.80;99.90;;;;;;12476618;28;20050;-39
2022/03/15 03:51:13;;;;;;;23.73;12.77;;;4.70;99.90;;;;;;12471113;28;20052;-39
2022/03/15 03:57:15;;;;;;;23.05;12.63;;;4.50;99.90;;;;;;12470816;28;20145;-37
2022/03/15 04:03:17;;;;;;;20.17;11.75;;;4.60;99.90;;;;;;12470428;28;20152;-41
2022/03/15 04:09:20;;;;;;;22.70;12.30;;;4.60;99.90;;;;;;12473307;28;20045;-39
2022/03/15 04:15:23;;;;;;;20.17;11.55;;;4.70;99.90;;;;;;12473941;28;20160;-37
2022/03/15 04:21:25;;;;;;;18.90;11.50;;;4.50;99.90;;;;;;12479759;28;20051;-37
2022/03/15 04:27:27;;;;;;;22.42;12.32;;;4.50;99.90;;;;;;12482238;28;20084;-37
2022/03/15 04:33:29;;;;;;;22.38;12.50;;;4.40;99.90;;;;;;12481737;28;20183;-37
2022/03/15 04:39:31;;;;;;;20.25;12.32;;;4.30;99.90;;;;;;12484678;28;20061;-39
2022/03/15 04:45:33;;;;;;;23.70;14.25;;;4.10;99.90;;;;;;12481912;28;20512;-39
2022/03/15 04:51:35;;;;;;;24.27;13.45;;;4.10;99.90;;;;;;12486674;28;20104;-38
2022/03/15 04:57:37;;;;;;;19.13;11.55;;;4.20;99.90;;;;;;12481710;28;20115;-38
2022/03/15 05:03:39;;;;;;;23.15;13.55;;;4.30;99.90;;;;;;12480887;28;20515;-37
2022/03/15 05:16:03;;;;;;;20.85;12.00;;;4.30;99.90;;;;;;12478862;28;20061;-37
2022/03/15 05:22:05;;;;;;;19.55;12.07;;;4.20;99.90;;;;;;12478305;28;20148;-37
2022/03/15 05:28:09;;;;;;;21.13;14.00;;;4.20;99.90;;;;;;12481751;28;20110;-40
2022/03/15 05:34:11;;;;;;;22.08;12.90;;;4.10;99.90;;;;;;12483331;28;20140;-37
2022/03/15 05:40:13;;;;;;;25.92;13.60;;;4.00;99.90;;;;;;12480040;28;20064;-37
2022/03/15 05:46:15;;;;;;;23.33;14.45;;;4.10;99.90;;;;;;12478804;28;20053;-38
2022/03/15 05:52:17;;;;;;;22.98;13.73;;;4.10;99.90;;;;;;12481655;28;20049;-38
2022/03/15 05:58:19;;;;;;;23.23;13.05;;;3.90;99.90;;;;;;12485934;28;20497;-37
2022/03/15 06:04:25;;;;;;;22.33;13.18;;;3.90;99.90;;;;;;12482233;28;20103;-38
2022/03/15 06:10:28;;;;;;;21.23;11.82;;;4.00;99.90;;;;;;12480367;28;20064;-39
2022/03/15 06:16:30;;;;;;;20.88;12.95;;;3.80;99.90;;;;;;12482434;28;20151;-37
2022/03/15 06:22:32;;;;;;;21.05;12.80;;;3.90;99.90;;;;;;12483411;22;20057;-81
2022/03/15 06:28:37;;;;;;;20.83;13.98;;;3.90;99.90;;;;;;12454604;28;20073;-81
2022/03/15 06:34:39;;;;;;;23.55;13.50;;;4.00;99.90;;;;;;12454461;28;20074;-81
2022/03/15 06:40:42;;;;;;;29.33;13.63;;;4.10;99.90;;;;;;12442360;28;20050;-81
2022/03/15 06:46:43;;;;;;;26.23;13.50;;;4.30;99.90;;;;;;12448698;28;20043;-81
2022/03/15 06:52:46;;;;;;;26.23;14.25;;;4.50;99.90;;;;;;12437369;28;20132;-82
2022/03/15 06:58:50;;;;;;;25.27;13.35;;;4.70;99.90;;;;;;12438421;28;20387;-81
2022/03/15 07:04:52;;;;;;;25.57;13.40;;;5.10;99.90;;;;;;12433535;28;20050;-81
2022/03/15 07:10:55;;;;;;;22.73;11.52;;;5.30;99.90;;;;;;12435401;28;20052;-81
2022/03/15 07:16:58;;;;;;;23.90;12.52;;;5.50;99.90;;;;;;12435767;28;20051;-82
2022/03/15 07:23:00;;;;;;;27.02;14.63;;;5.70;99.90;;;;;;12457382;28;20056;-81
2022/03/15 07:29:02;;;;;;;21.10;11.75;;;5.60;99.90;;;;;;12487634;28;20497;-81
2022/03/15 07:35:04;;;;;;;17.77;10.93;;;5.90;99.90;;;;;;12483500;28;20064;-82
2022/03/15 07:41:06;;;;;;;18.85;11.48;;;6.00;99.90;;;;;;12480659;28;20057;-82
2022/03/15 07:47:14;;;;;;;20.17;12.70;;;6.00;99.90;;;;;;12495766;28;20183;-81
2022/03/15 07:53:15;;;;;;;23.05;13.82;;;6.20;99.90;;;;;;12485277;28;20491;-82
2022/03/15 07:59:18;;;;;;;16.75;11.63;;;6.20;99.90;;;;;;12485956;28;20081;-81
2022/03/15 08:05:21;;;;;;;18.35;12.07;;;6.70;99.90;;;;;;12491082;28;20049;-82
2022/03/15 08:11:26;;;;;;;24.13;14.20;;;6.80;99.90;;;;;;12482037;28;20052;-82
2022/03/15 08:17:29;;;;;;;29.55;15.18;;;7.00;99.90;;;;;;12481300;28;20451;-81
2022/03/15 08:23:31;;;;;;;30.08;15.82;;;6.80;99.90;;;;;;12489264;28;20033;-82
2022/03/15 08:29:33;;;;;;;26.60;16.23;;;6.70;99.90;;;;;;12494796;28;20936;-81
2022/03/15 08:35:36;;;;;;;28.50;15.82;;;6.90;99.90;;;;;;12483117;28;20145;-81
2022/03/15 08:41:38;;;;;;;23.95;14.88;;;7.10;99.90;;;;;;12486097;28;20045;-81
2022/03/15 08:47:41;;;;;;;26.73;15.45;;;7.20;99.90;;;;;;12486577;28;20504;-82
2022/03/15 08:53:42;;;;;;;24.90;15.68;;;7.20;99.90;;;;;;12480471;28;20685;-82
2022/03/15 08:59:44;;;;;;;26.70;15.98;;;7.10;99.90;;;;;;12486344;28;20053;-82
2022/03/15 09:05:46;;;;;;;26.35;16.63;;;7.30;99.90;;;;;;12489604;28;20045;-82
2022/03/15 09:11:50;;;;;;;24.03;14.20;;;7.50;99.90;;;;;;12491213;28;20135;-81
2022/03/15 09:17:52;;;;;;;27.48;16.08;;;7.50;99.90;;;;;;12490453;28;20057;-82
2022/03/15 09:23:58;;;;;;;26.50;15.77;;;7.60;99.90;;;;;;12507175;28;20049;-81
2022/03/15 09:30:00;;;;;;;29.77;15.32;;;7.70;99.90;;;;;;12487098;28;20079;-81
2022/03/15 09:36:04;;;;;;;21.25;13.52;;;7.90;99.90;;;;;;12486319;28;20063;-82
2022/03/15 09:42:07;;;;;;;20.83;13.25;;;8.00;99.90;;;;;;12488596;28;20042;-82
2022/03/15 09:48:15;;;;;;;28.33;15.15;;;8.30;99.90;;;;;;12487896;28;20144;-82
2022/03/15 09:54:18;;;;;;;19.08;11.10;;;8.40;99.90;;;;;;12487773;28;20135;-81
2022/03/15 10:00:20;;;;;;;27.52;13.93;;;8.60;99.90;;;;;;12490307;28;20111;-82
2022/03/15 10:06:23;;;;;;;24.30;13.98;;;8.70;99.90;;;;;;12485028;28;20055;-81
2022/03/15 10:12:25;;;;;;;21.63;13.50;;;8.90;99.90;;;;;;12484092;28;20049;-82
2022/03/15 10:18:27;;;;;;;19.63;11.48;;;8.90;99.90;;;;;;12488450;28;20056;-82
2022/03/15 10:24:30;;;;;;;17.27;11.15;;;9.10;99.90;;;;;;12486707;28;20085;-82
2022/03/15 10:30:32;;;;;;;22.80;14.45;;;9.40;99.90;;;;;;12488154;28;20041;-82
2022/03/15 10:36:41;;;;;;;16.58;11.30;;;9.40;99.90;;;;;;12489379;28;20492;-81
2022/03/15 10:42:46;;;;;;;18.00;12.57;;;9.80;99.90;;;;;;12494449;28;20564;-81
2022/03/15 10:49:00;;;;;;;23.33;13.98;;;10.00;99.90;;;;;;12494225;28;20163;-82
2022/03/15 10:55:13;;;;;;;19.55;12.55;;;10.10;99.90;;;;;;12482182;28;20083;-82
2022/03/15 11:01:23;;;;;;;15.55;10.00;;;10.30;99.90;;;;;;12483870;28;20049;-82
2022/03/15 11:07:37;;;;;;;20.90;12.70;;;10.50;99.90;;;;;;12503183;28;20056;-84
2022/03/15 11:13:39;;;;;;;15.03;9.40;;;10.70;99.90;;;;;;12483836;28;20077;-84
2022/03/15 11:19:52;;;;;;;21.83;10.82;;;10.90;99.90;;;;;;12483697;28;20615;-83
2022/03/15 11:26:02;;;;;;;14.88;9.57;;;11.10;99.90;;;;;;12482969;28;20560;-83
2022/03/15 11:32:06;;;;;;;12.93;5.97;;;11.20;99.90;;;;;;12481210;28;20061;-83
2022/03/15 11:38:12;;;;;;;13.43;5.80;;;10.90;99.90;;;;;;12480709;28;20056;-83
2022/03/15 11:44:14;;;;;;;9.45;5.13;;;10.90;99.90;;;;;;12496613;28;20080;-84
2022/03/15 11:50:31;;;;;;;9.60;5.28;;;11.00;99.90;;;;;;12478840;28;20052;-84
2022/03/15 11:56:42;;;;;;;9.20;4.90;;;10.90;99.90;;;;;;12487471;28;20057;-84
2022/03/15 12:02:48;;;;;;;8.18;3.72;;;11.00;99.90;;;;;;12507786;28;20045;-84
2022/03/15 12:08:53;;;;;;;7.40;3.20;;;11.20;99.90;;;;;;12492100;28;20983;-84
2022/03/15 12:14:55;;;;;;;6.72;2.80;;;11.20;99.90;;;;;;12501003;28;20128;-84
2022/03/15 12:21:10;;;;;;;9.27;2.72;;;11.30;99.90;;;;;;12484456;28;20631;-84
2022/03/15 12:27:22;;;;;;;6.72;2.85;;;11.30;99.90;;;;;;12480448;28;20052;-84
2022/03/15 12:33:26;;;;;;;5.90;2.10;;;11.30;99.90;;;;;;12486362;28;21105;-85
2022/03/15 12:39:30;;;;;;;5.25;2.20;;;11.20;99.90;;;;;;12484550;28;20079;-84
2022/03/15 12:45:44;;;;;;;6.97;2.22;;;11.20;99.90;;;;;;12486034;28;20049;-84
2022/03/15 12:51:46;;;;;;;6.53;3.30;;;11.50;99.90;;;;;;12487432;28;20045;-84
2022/03/15 12:57:53;;;;;;;8.63;2.42;;;11.70;99.90;;;;;;12494352;28;20504;-84
2022/03/15 13:03:56;;;;;;;7.43;2.40;;;11.70;99.90;;;;;;12491930;28;20041;-84
2022/03/15 13:09:58;;;;;;;5.70;2.20;;;11.80;99.90;;;;;;12501128;28;20512;-84
2022/03/15 13:16:07;;;;;;;5.53;1.98;;;11.80;99.90;;;;;;12492731;28;20084;-84
2022/03/15 13:22:11;;;;;;;6.38;2.25;;;11.60;99.90;;;;;;12487640;28;20138;-83
2022/03/15 13:28:31;;;;;;;11.20;4.18;;;11.60;99.90;;;;;;12499881;28;20072;-85
2022/03/15 13:34:33;;;;;;;10.30;3.47;;;11.80;99.90;;;;;;12495321;28;20085;-84
2022/03/15 13:40:35;;;;;;;6.05;2.60;;;11.70;99.90;;;;;;12495805;28;20579;-85
2022/03/15 13:46:39;;;;;;;8.98;4.63;;;11.70;99.90;;;;;;12489422;28;20055;-84
2022/03/15 13:52:42;;;;;;;7.75;3.05;;;11.80;99.90;;;;;;12486923;28;20045;-84
2022/03/15 13:58:56;;;;;;;7.53;3.60;;;11.60;99.90;;;;;;12493313;28;20104;-84
2022/03/15 14:05:03;;;;;;;;;;;11.40;99.90;;;;;;12487675;28;20041;-83
2022/03/15 14:11:10;;;;;;;7.95;3.55;;;11.40;99.90;;;;;;12486748;28;19929;-83
2022/03/15 14:17:12;;;;;;;9.63;5.70;;;11.50;99.90;;;;;;12486413;28;20053;-83
2022/03/15 14:23:14;;;;;;;8.05;5.30;;;11.30;99.90;;;;;;12485460;28;20111;-84
2022/03/15 14:29:20;;;;;;;12.88;6.20;;;11.30;99.90;;;;;;12491708;28;20076;-84
2022/03/15 14:35:26;;;;;;;11.80;7.03;;;11.10;99.90;;;;;;12484416;28;20056;-84
2022/03/15 14:41:27;;;;;;;12.52;7.20;;;11.00;99.90;;;;;;12487200;28;20054;-84
2022/03/15 14:47:33;;;;;;;10.85;6.10;;;10.90;99.90;;;;;;12486275;28;20128;-84
2022/03/15 14:53:37;;;;;;;9.35;5.78;;;10.90;99.90;;;;;;12486749;28;20052;-84
2022/03/15 14:59:39;;;;;;;9.35;6.15;;;10.90;99.90;;;;;;12488849;28;20111;-83
2022/03/15 15:05:42;;;;;;;11.27;6.68;;;10.90;99.90;;;;;;12497029;28;20083;-84
2022/03/15 15:11:46;;;;;;;13.77;6.07;;;10.90;99.90;;;;;;12492290;28;20129;-84
2022/03/15 15:17:48;;;;;;;10.45;6.15;;;10.90;99.90;;;;;;12493614;28;20077;-85
2022/03/15 15:23:53;;;;;;;8.10;5.28;;;10.90;99.90;;;;;;12483119;28;20057;-84
2022/03/15 15:29:56;;;;;;;13.45;5.40;;;10.80;99.90;;;;;;12488841;28;20409;-84
2022/03/15 15:35:58;;;;;;;9.40;5.47;;;10.80;99.90;;;;;;12485434;28;20234;-84
2022/03/15 15:42:00;;;;;;;10.48;5.43;;;10.70;99.90;;;;;;12485041;28;20132;-83
2022/03/15 15:48:09;;;;;;;12.10;5.30;;;10.60;99.90;;;;;;12489769;28;20045;-84
2022/03/15 15:54:10;;;;;;;9.90;5.45;;;10.50;99.90;;;;;;12495180;28;20077;-84
2022/03/15 16:00:13;;;;;;;7.85;4.82;;;10.40;99.90;;;;;;12480768;28;20136;-83
2022/03/15 16:06:15;;;;;;;10.52;5.05;;;10.30;99.90;;;;;;12486550;28;20581;-83
2022/03/15 16:12:18;;;;;;;7.72;4.82;;;10.20;99.90;;;;;;12499359;28;20038;-85
2022/03/15 16:18:20;;;;;;;10.00;5.70;;;10.20;99.90;;;;;;12493539;28;20083;-84
2022/03/15 16:24:22;;;;;;;12.35;5.40;;;10.20;99.90;;;;;;12495172;28;20132;-82
2022/03/15 16:30:24;;;;;;;9.50;5.60;;;10.10;99.90;;;;;;12487011;28;20483;-82
2022/03/15 16:36:28;;;;;;;10.05;4.60;;;10.10;99.90;;;;;;12477290;28;20052;-83
2022/03/15 16:42:30;;;;;;;10.83;4.83;;;10.00;99.90;;;;;;12478517;28;22045;-83
2022/03/15 16:48:35;;;;;;;10.35;5.03;;;9.90;99.90;;;;;;12479394;28;20098;-83
2022/03/15 16:54:39;;;;;;;11.95;5.28;;;9.90;99.90;;;;;;12474123;28;20137;-83
2022/03/15 17:00:41;;;;;;;9.15;4.72;;;9.80;99.90;;;;;;12481541;28;20056;-83
2022/03/15 17:06:43;;;;;;;11.00;5.30;;;9.70;99.90;;;;;;12479723;28;20049;-83
2022/03/15 17:12:45;;;;;;;12.32;5.10;;;9.70;99.90;;;;;;12486151;28;20072;-82
2022/03/15 17:18:58;;;;;;;11.57;5.07;;;9.60;99.90;;;;;;12483442;28;20083;-83
2022/03/15 17:25:03;;;;;;;11.20;5.28;;;9.50;99.90;;;;;;12494900;28;20159;-83
2022/03/15 17:31:10;;;;;;;10.07;5.28;;;9.30;99.90;;;;;;12495723;28;20884;-83
2022/03/15 17:37:22;;;;;;;11.68;5.03;;;9.20;99.90;;;;;;12500026;28;20053;-83
2022/03/15 17:43:27;;;;;;;13.02;5.53;;;9.00;99.90;;;;;;12498520;28;21498;-83
2022/03/15 17:49:29;;;;;;;11.70;6.60;;;8.80;99.90;;;;;;12496633;28;20041;-81
2022/03/15 17:55:33;;;;;;;12.18;6.40;;;8.60;99.90;;;;;;12485516;28;20091;-82
2022/03/15 18:01:37;;;;;;;17.55;6.93;;;8.30;99.90;;;;;;12489428;28;20456;-82
2022/03/15 18:07:40;;;;;;;14.85;7.10;;;8.00;99.90;;;;;;12493619;28;20049;-82
2022/03/15 18:14:06;;;;;;;16.05;8.07;;;7.80;99.90;;;;;;12472079;28;20111;-82
2022/03/15 18:20:12;;;;;;;17.77;9.65;;;7.60;99.90;;;;;;12438244;28;20061;-82
2022/03/15 18:26:16;;;;;;;14.13;7.70;;;7.40;99.90;;;;;;12486643;28;20054;-82
2022/03/15 18:32:20;;;;;;;13.02;8.07;;;7.30;99.90;;;;;;12488761;28;20080;-82
2022/03/15 18:38:42;;;;;;;10.20;6.83;;;7.20;99.90;;;;;;12486278;28;20127;-82
2022/03/15 18:44:44;;;;;;;14.10;7.22;;;7.10;99.90;;;;;;12482984;28;20091;-83
2022/03/15 18:50:49;;;;;;;18.85;7.68;;;6.90;99.90;;;;;;12485425;28;20073;-82
2022/03/15 18:56:51;;;;;;;11.35;7.72;;;6.90;99.90;;;;;;12510563;28;20060;-82
2022/03/15 19:02:54;;;;;;;16.35;9.20;;;6.80;99.90;;;;;;12475822;28;20106;-82
2022/03/15 19:08:57;;;;;;;21.48;13.45;;;6.80;99.90;;;;;;12485297;28;20053;-81
2022/03/15 19:14:59;;;;;;;13.65;7.95;;;6.80;99.90;;;;;;12475045;28;20157;-83
2022/03/15 19:21:01;;;;;;;14.57;8.40;;;6.60;99.90;;;;;;12484594;28;20045;-82
2022/03/15 19:27:04;;;;;;;13.80;7.30;;;6.40;99.90;;;;;;12481621;28;20813;-83
2022/03/15 19:33:06;;;;;;;14.95;7.93;;;6.40;99.90;;;;;;12487383;28;20054;-82
2022/03/15 19:39:08;;;;;;;14.80;7.28;;;6.40;99.90;;;;;;12482840;28;20099;-82
2022/03/15 19:45:11;;;;;;;11.68;7.13;;;6.40;99.90;;;;;;12485589;28;20438;-84
2022/03/15 19:51:13;;;;;;;48.65;25.50;;;6.50;99.90;;;;;;12486001;28;20132;-82
2022/03/15 19:57:15;;;;;;;202.25;68.70;;;6.50;99.90;;;;;;12484790;28;20060;-81
2022/03/15 20:03:18;;;;;;;21.77;11.70;;;6.40;99.90;;;;;;12514494;28;20045;-82
2022/03/15 20:09:26;;;;;;;10.95;7.30;;;6.20;99.90;;;;;;12500019;28;20067;-81
2022/03/15 20:15:37;;;;;;;13.63;7.30;;;6.10;99.90;;;;;;12494045;28;20528;-82
2022/03/15 20:21:43;;;;;;;14.90;8.93;;;6.10;99.90;;;;;;12476848;28;20064;-82
2022/03/15 20:27:45;;;;;;;14.43;9.00;;;6.00;99.90;;;;;;12476050;28;20140;-81
2022/03/15 20:33:49;;;;;;;13.85;8.65;;;6.00;99.90;;;;;;12478431;28;20041;-81
2022/03/15 20:39:51;;;;;;;13.70;8.50;;;5.90;99.90;;;;;;12480836;28;20797;-81
2022/03/15 20:45:53;;;;;;;13.68;7.85;;;5.80;99.90;;;;;;12478439;28;20776;-81
2022/03/15 20:51:57;;;;;;;13.65;7.60;;;5.90;99.90;;;;;;12482470;28;20505;-81
2022/03/15 20:57:59;;;;;;;14.27;7.83;;;5.50;99.90;;;;;;12490615;28;20136;-81
2022/03/15 21:04:03;;;;;;;16.15;7.57;;;5.40;99.90;;;;;;12500944;28;20107;-82
2022/03/15 21:10:05;;;;;;;12.30;7.00;;;5.40;99.90;;;;;;12487470;28;20052;-81
2022/03/15 21:16:10;;;;;;;12.05;7.32;;;5.30;99.90;;;;;;12493757;28;20057;-81
2022/03/15 21:22:13;;;;;;;12.07;7.70;;;5.40;99.90;;;;;;12492386;28;20172;-81
2022/03/15 21:28:14;;;;;;;13.13;8.10;;;5.40;99.90;;;;;;12491401;28;20135;-82
2022/03/15 21:34:16;;;;;;;17.50;8.63;;;5.50;99.90;;;;;;12495427;28;20057;-81
2022/03/15 21:40:18;;;;;;;17.52;9.10;;;5.50;99.90;;;;;;12513399;28;20095;-82
2022/03/15 21:46:21;;;;;;;12.85;7.95;;;5.50;99.90;;;;;;12493647;28;20132;-82
2022/03/15 21:52:23;;;;;;;11.48;6.97;;;5.40;99.90;;;;;;12495516;28;20052;-81
2022/03/15 21:58:35;;;;;;;12.80;7.43;;;5.20;99.90;;;;;;12483804;28;20057;-80
2022/03/15 22:04:42;;;;;;;15.48;7.20;;;5.20;99.90;;;;;;12483583;28;20049;-81
2022/03/15 22:10:45;;;;;;;12.45;7.30;;;5.00;99.90;;;;;;12488323;28;20041;-81
2022/03/15 22:16:46;;;;;;;12.40;8.65;;;5.00;99.90;;;;;;12480350;28;20932;-81
2022/03/15 22:22:50;;;;;;;12.82;8.55;;;5.00;99.90;;;;;;12484862;28;20505;-81
2022/03/15 22:28:52;;;;;;;14.80;8.57;;;5.00;99.90;;;;;;12484881;28;20079;-81
2022/03/15 23:19:05;;;;;;;14.38;8.35;;;4.60;99.90;;;;;;12387067;28;20158;-81
2022/03/15 23:25:07;;;;;;;17.63;8.52;;;4.60;99.90;;;;;;12382552;28;20562;-81
2022/03/15 23:31:11;;;;;;;13.27;7.75;;;4.60;99.90;;;;;;12384392;28;20157;-81
2022/03/15 23:37:12;;;;;;;15.27;7.95;;;4.60;99.90;;;;;;12368890;28;20049;-81
2022/03/15 23:43:14;;;;;;;11.60;7.28;;;4.50;99.90;;;;;;12397541;28;20388;-82
2022/03/15 23:49:16;;;;;;;13.63;8.43;;;4.30;99.90;;;;;;12424185;28;20135;-82
2022/03/15 23:55:19;;;;;;;18.98;8.57;;;4.40;99.90;;;;;;12397191;28;20081;-81
